Douwe-s — PBMO — position and weather

sailwx.info

Track history (hours):
 
Tides and Currents Weather Stations Pressure Air Temp Water Temp Dewpoint Dewpoint Depression Visibility Wind Speed Wind Dir Waves Ship Positions

Douwe-s

Last reported at 2017-Dec-18 05:00 UTC. Time now 2017-Dec-18 05:16 UTC.
Position N 53°20' E 008°30'.

Length 95 m; draft 5.5 m.

Type: Cargo ship. MMSI: 244956000.

Date/timePositionNaut miles runAvg speedWind from/ knotsBaromVisibWave heightAir tempDewpointWater temp
2017-Dec-18 05:00N 53°20' E 008°30'0 0.0
2017-Dec-18 04:30N 53°20' E 008°30'0 0.0
2017-Dec-18 04:00N 53°20' E 008°30'0 0.0
2017-Dec-18 03:30N 53°20' E 008°30'0 0.0
2017-Dec-18 03:00N 53°20' E 008°30'0 0.0
2017-Dec-18 02:30N 53°20' E 008°30'0 0.0
2017-Dec-18 02:00N 53°20' E 008°30'0 0.0
2017-Dec-18 01:29N 53°20' E 008°30'0 0.0
2017-Dec-18 01:00N 53°20' E 008°30'0 0.0
2017-Dec-18 00:30N 53°20' E 008°30'0 0.0
2017-Dec-18 00:00N 53°20' E 008°30'0 0.0
2017-Dec-17 23:30N 53°20' E 008°30'0 0.0
2017-Dec-17 23:00N 53°20' E 008°30'0 0.0
2017-Dec-17 22:30N 53°20' E 008°30'0 0.0
2017-Dec-17 22:00N 53°20' E 008°30'0 0.0
2017-Dec-17 21:30N 53°20' E 008°30'0 0.0
2017-Dec-17 21:00N 53°20' E 008°30'0 0.0
2017-Dec-17 20:30N 53°20' E 008°30'0 0.0
2017-Dec-17 20:00N 53°20' E 008°30'0 0.0
2017-Dec-17 19:30N 53°20' E 008°30'0 0.0
2017-Dec-17 19:00N 53°20' E 008°30'0 0.0
2017-Dec-17 18:30N 53°20' E 008°30'0 0.0
2017-Dec-17 18:00N 53°20' E 008°30'0 0.0
2017-Dec-17 17:30N 53°20' E 008°30'0 0.0
2017-Dec-17 17:00N 53°20' E 008°30'0 0.0
2017-Dec-17 16:30N 53°20' E 008°30'0 0.0
2017-Dec-17 16:00N 53°20' E 008°30'0 0.0
2017-Dec-17 15:30N 53°20' E 008°30'0 0.0
2017-Dec-17 15:00N 53°20' E 008°30'0 0.0
2017-Dec-17 14:30N 53°20' E 008°30'0 0.0
2017-Dec-17 14:00N 53°20' E 008°30'0 0.0
2017-Dec-17 13:30N 53°20' E 008°30'3 5.9
2017-Dec-17 13:00N 53°23' E 008°30'510.1
2017-Dec-17 12:30N 53°28' E 008°30'5 9.7
2017-Dec-17 12:00N 53°32' E 008°34'611.0
2017-Dec-17 11:30N 53°37' E 008°29'611.3
2017-Dec-17 11:00N 53°41' E 008°22'611.4
2017-Dec-17 10:30N 53°44' E 008°14'611.5
2017-Dec-17 10:00N 53°48' E 008°07'611.3
2017-Dec-17 09:30N 53°51' E 007°59'97 9.4
2017-Dec-16 23:07N 53°32' E 005°18'1 8.4
2017-Dec-16 23:00N 53°32' E 005°16'4 8.6
2017-Dec-16 22:30N 53°30' E 005°09'4 8.5
2017-Dec-16 22:00N 53°28' E 005°03'8 8.6
2017-Dec-16 21:02N 53°25' E 004°50'0 8.6
2017-Dec-16 21:00N 53°25' E 004°49'141 8.2
2017-Dec-16 03:50N 51°35' E 002°25'4 8.1
2017-Dec-16 03:17N 51°32' E 002°20'2 8.1
2017-Dec-16 03:00N 51°30' E 002°18'4 8.5
2017-Dec-16 02:30N 51°26' E 002°14'4 8.8
2017-Dec-16 02:00N 51°22' E 002°11'5 9.0
2017-Dec-16 01:30N 51°19' E 002°07'5 9.5
2017-Dec-16 01:00N 51°14' E 002°03'5 9.9
2017-Dec-16 00:30N 51°11' E 001°57'510.3
2017-Dec-16 00:00N 51°08' E 001°50'510.7
2017-Dec-15 23:30N 51°05' E 001°44'611.1
2017-Dec-15 22:56N 51°00' E 001°37'511.5
2017-Dec-15 22:30N 50°57' E 001°32'5410.1
2017-Dec-15 17:11N 50°25' E 000°22'410.5
2017-Dec-15 16:51N 50°24' E 000°17'410.2
2017-Dec-15 16:25N 50°23' E 000°10'5 9.9
2017-Dec-15 15:53N 50°22' E 000°02'11 9.0
2017-Dec-15 14:38N 50°18' W 000°14'1 8.5
2017-Dec-15 14:30N 50°18' W 000°16'  
2017-Dec-08 11:14N 43°40' W 006°14'210.0
2017-Dec-08 10:59N 43°41' W 006°11'5 9.7
2017-Dec-08 10:27N 43°42' W 006°04'4 9.4
2017-Dec-08 09:59N 43°43' W 005°58'5 9.6
2017-Dec-08 09:30N 43°44' W 005°52'5 9.3
2017-Dec-08 09:00N 43°44' W 005°45'5 9.5
2017-Dec-08 08:31N 43°44' W 005°39'5 9.5
2017-Dec-08 08:01N 43°43' W 005°32'5 9.6
2017-Dec-08 07:30N 43°42' W 005°26'5 9.6
2017-Dec-08 07:00N 43°42' W 005°19'5 9.6
2017-Dec-08 06:29N 43°41' W 005°12'5 9.5
2017-Dec-08 06:00N 43°40' W 005°06'5 9.3
2017-Dec-08 05:29N 43°40' W 004°59'  
Track history (hours):
 
Tides and Currents Weather Stations Pressure Air Temp Water Temp Dewpoint Dewpoint Depression Visibility Wind Speed Wind Dir Waves Ship Positions

Douwe-s

Last reported at 2017-Dec-18 05:00 UTC. Time now 2017-Dec-18 05:16 UTC.
Position N 53°20' E 008°30'.

Length 95 m; draft 5.5 m.

Type: Cargo ship. MMSI: 244956000.

Date/timePositionNaut miles runAvg speedWind from/ knotsBaromVisibWave heightAir tempDewpointWater temp
2017-Dec-18 05:00N 53°20' E 008°30'0 0.0
2017-Dec-18 04:30N 53°20' E 008°30'0 0.0
2017-Dec-18 04:00N 53°20' E 008°30'0 0.0
2017-Dec-18 03:30N 53°20' E 008°30'0 0.0
2017-Dec-18 03:00N 53°20' E 008°30'0 0.0
2017-Dec-18 02:30N 53°20' E 008°30'0 0.0
2017-Dec-18 02:00N 53°20' E 008°30'0 0.0
2017-Dec-18 01:29N 53°20' E 008°30'0 0.0
2017-Dec-18 01:00N 53°20' E 008°30'0 0.0
2017-Dec-18 00:30N 53°20' E 008°30'0 0.0
2017-Dec-18 00:00N 53°20' E 008°30'0 0.0
2017-Dec-17 23:30N 53°20' E 008°30'0 0.0
2017-Dec-17 23:00N 53°20' E 008°30'0 0.0
2017-Dec-17 22:30N 53°20' E 008°30'0 0.0
2017-Dec-17 22:00N 53°20' E 008°30'0 0.0
2017-Dec-17 21:30N 53°20' E 008°30'0 0.0
2017-Dec-17 21:00N 53°20' E 008°30'0 0.0
2017-Dec-17 20:30N 53°20' E 008°30'0 0.0
2017-Dec-17 20:00N 53°20' E 008°30'0 0.0
2017-Dec-17 19:30N 53°20' E 008°30'0 0.0
2017-Dec-17 19:00N 53°20' E 008°30'0 0.0
2017-Dec-17 18:30N 53°20' E 008°30'0 0.0
2017-Dec-17 18:00N 53°20' E 008°30'0 0.0
2017-Dec-17 17:30N 53°20' E 008°30'0 0.0
2017-Dec-17 17:00N 53°20' E 008°30'0 0.0
2017-Dec-17 16:30N 53°20' E 008°30'0 0.0
2017-Dec-17 16:00N 53°20' E 008°30'0 0.0
2017-Dec-17 15:30N 53°20' E 008°30'0 0.0
2017-Dec-17 15:00N 53°20' E 008°30'0 0.0
2017-Dec-17 14:30N 53°20' E 008°30'0 0.0
2017-Dec-17 14:00N 53°20' E 008°30'0 0.0
2017-Dec-17 13:30N 53°20' E 008°30'3 5.9
2017-Dec-17 13:00N 53°23' E 008°30'510.1
2017-Dec-17 12:30N 53°28' E 008°30'5 9.7
2017-Dec-17 12:00N 53°32' E 008°34'611.0
2017-Dec-17 11:30N 53°37' E 008°29'611.3
2017-Dec-17 11:00N 53°41' E 008°22'611.4
2017-Dec-17 10:30N 53°44' E 008°14'611.5
2017-Dec-17 10:00N 53°48' E 008°07'611.3
2017-Dec-17 09:30N 53°51' E 007°59'97 9.4
2017-Dec-16 23:07N 53°32' E 005°18'1 8.4
2017-Dec-16 23:00N 53°32' E 005°16'4 8.6
2017-Dec-16 22:30N 53°30' E 005°09'4 8.5
2017-Dec-16 22:00N 53°28' E 005°03'8 8.6
2017-Dec-16 21:02N 53°25' E 004°50'0 8.6
2017-Dec-16 21:00N 53°25' E 004°49'141 8.2
2017-Dec-16 03:50N 51°35' E 002°25'4 8.1
2017-Dec-16 03:17N 51°32' E 002°20'2 8.1
2017-Dec-16 03:00N 51°30' E 002°18'4 8.5
2017-Dec-16 02:30N 51°26' E 002°14'4 8.8
2017-Dec-16 02:00N 51°22' E 002°11'5 9.0
2017-Dec-16 01:30N 51°19' E 002°07'5 9.5
2017-Dec-16 01:00N 51°14' E 002°03'5 9.9
2017-Dec-16 00:30N 51°11' E 001°57'510.3
2017-Dec-16 00:00N 51°08' E 001°50'510.7
2017-Dec-15 23:30N 51°05' E 001°44'611.1
2017-Dec-15 22:56N 51°00' E 001°37'511.5
2017-Dec-15 22:30N 50°57' E 001°32'5410.1
2017-Dec-15 17:11N 50°25' E 000°22'410.5
2017-Dec-15 16:51N 50°24' E 000°17'410.2
2017-Dec-15 16:25N 50°23' E 000°10'5 9.9
2017-Dec-15 15:53N 50°22' E 000°02'11 9.0
2017-Dec-15 14:38N 50°18' W 000°14'1 8.5
2017-Dec-15 14:30N 50°18' W 000°16'  
2017-Dec-08 11:14N 43°40' W 006°14'210.0
2017-Dec-08 10:59N 43°41' W 006°11'5 9.7
2017-Dec-08 10:27N 43°42' W 006°04'4 9.4
2017-Dec-08 09:59N 43°43' W 005°58'5 9.6
2017-Dec-08 09:30N 43°44' W 005°52'5 9.3
2017-Dec-08 09:00N 43°44' W 005°45'5 9.5
2017-Dec-08 08:31N 43°44' W 005°39'5 9.5
2017-Dec-08 08:01N 43°43' W 005°32'5 9.6
2017-Dec-08 07:30N 43°42' W 005°26'5 9.6
2017-Dec-08 07:00N 43°42' W 005°19'5 9.6
2017-Dec-08 06:29N 43°41' W 005°12'5 9.5
2017-Dec-08 06:00N 43°40' W 005°06'5 9.3
2017-Dec-08 05:29N 43°40' W 004°59'  

Dump ship's entire track history